Time;durP1;ratioP1;P1;durP2;ratioP2;P2;SDS_P1;SDS_P2;PMS_P1;PMS_P2;Temp;Humidity;BMP_temperature;BMP_pressure;BME280_temperature;BME280_humidity;BME280_pressure;Samples;Min_cycle;Max_cycle;Signal;HPM_P1;HPM_P2
2024/01/24 00:01:59;;;;;;;30.23;17.88;;;;;;;;;;5094848;28;20024;-78
2024/01/24 00:04:29;;;;;;;28.83;16.90;;;;;;;;;;5113284;28;20092;-70
2024/01/24 00:06:55;;;;;;;29.52;18.60;;;;;;;;;;5113736;28;20064;-73
2024/01/24 00:09:21;;;;;;;30.85;17.85;;;;;;;;;;5116114;28;20063;-66
2024/01/24 00:11:47;;;;;;;41.38;22.88;;;;;;;;;;5114232;28;20561;-66
2024/01/24 00:14:13;;;;;;;58.83;28.73;;;;;;;;;;5113218;28;20019;-67
2024/01/24 00:16:40;;;;;;;42.03;22.63;;;;;;;;;;5112374;28;20024;-67
2024/01/24 00:19:06;;;;;;;39.72;21.08;;;;;;;;;;5113166;28;20036;-71
2024/01/24 00:21:33;;;;;;;36.17;20.08;;;;;;;;;;5114683;28;20069;-68
2024/01/24 00:23:59;;;;;;;30.95;18.15;;;;;;;;;;5116740;28;20507;-68
2024/01/24 00:26:25;;;;;;;34.47;19.10;;;;;;;;;;5115489;28;20521;-70
2024/01/24 00:28:51;;;;;;;32.15;18.20;;;;;;;;;;5116879;28;20531;-67
2024/01/24 00:31:21;;;;;;;36.70;20.00;;;;;;;;;;5115698;28;20469;-67
2024/01/24 00:33:47;;;;;;;38.85;19.77;;;;;;;;;;5102770;28;20031;-70
2024/01/24 00:36:13;;;;;;;34.85;19.42;;;;;;;;;;5107011;28;20048;-71
2024/01/24 00:38:39;;;;;;;34.83;18.65;;;;;;;;;;5093110;28;20024;-68
2024/01/24 00:41:08;;;;;;;29.80;18.00;;;;;;;;;;5094742;28;20047;-67
2024/01/24 00:43:34;;;;;;;31.50;17.95;;;;;;;;;;5095796;28;20465;-66
2024/01/24 00:46:03;;;;;;;30.35;17.52;;;;;;;;;;5092865;28;20027;-66
2024/01/24 00:48:30;;;;;;;30.85;17.20;;;;;;;;;;5091410;28;20025;-67
2024/01/24 00:50:56;;;;;;;32.45;18.67;;;;;;;;;;5092787;28;20028;-69
2024/01/24 00:53:23;;;;;;;38.45;21.55;;;;;;;;;;5092758;28;20479;-67
2024/01/24 00:55:49;;;;;;;35.28;20.48;;;;;;;;;;5074396;28;20036;-66
2024/01/24 00:58:15;;;;;;;41.17;23.42;;;;;;;;;;5074330;28;20532;-67
2024/01/24 01:00:42;;;;;;;41.38;24.92;;;;;;;;;;5073173;28;20390;-74
2024/01/24 01:03:08;;;;;;;46.80;26.60;;;;;;;;;;5072574;28;20017;-69
2024/01/24 01:05:34;;;;;;;46.63;26.48;;;76.90;2227.20;;;;;;5075847;28;20463;-66
2024/01/24 01:08:00;;;;;;;57.13;31.00;;;52.00;2227.20;;;;;;5074605;28;20103;-66
2024/01/24 01:10:26;;;;;;;58.42;31.42;;;52.00;2227.20;;;;;;5075338;28;20483;-67
2024/01/24 01:12:53;;;;;;;53.38;29.33;;;51.80;2227.20;;;;;;5075677;28;20455;-66
2024/01/24 01:15:19;;;;;;;55.00;30.48;;;51.80;2227.20;;;;;;5075787;28;20505;-66
2024/01/24 01:17:45;;;;;;;60.30;32.72;;;51.70;2227.20;;;;;;5085475;28;20020;-71
2024/01/24 01:20:11;;;;;;;56.50;31.17;;;51.80;2227.20;;;;;;5093079;28;20128;-67
2024/01/24 01:22:37;;;;;;;55.03;31.23;;;51.70;2227.20;;;;;;5089438;28;20479;-67
2024/01/24 01:25:03;;;;;;;59.83;32.13;;;51.70;2227.20;;;;;;5080806;28;20458;-66
2024/01/24 01:27:29;;;;;;;59.92;32.53;;;51.70;2227.20;;;;;;5113199;28;20023;-67
2024/01/24 01:29:55;;;;;;;53.90;30.55;;;51.70;2227.20;;;;;;5112903;28;20118;-70
2024/01/24 01:32:20;;;;;;;59.33;33.03;;;51.80;2227.20;;;;;;5112598;28;20024;-71
2024/01/24 01:34:46;;;;;;;55.13;31.70;;;51.70;2227.20;;;;;;5114741;28;20046;-73
2024/01/24 01:37:12;;;;;;;53.92;30.85;;;51.60;2227.20;;;;;;5115815;28;20450;-69
2024/01/24 01:39:39;;;;;;;55.05;29.73;;;51.60;2227.20;;;;;;5115688;28;20030;-73
2024/01/24 01:42:05;;;;;;;52.72;30.58;;;51.50;2227.20;;;;;;5115543;28;20457;-68
2024/01/24 01:44:41;;;;;;;55.85;31.98;;;51.50;2227.20;;;;;;5119187;28;20049;-72
2024/01/24 01:50:44;;;;;;;52.78;28.23;;;51.40;2227.20;;;;;;5119706;28;20090;-66
2024/01/24 01:53:12;;;;;;;54.45;29.05;;;51.40;2227.20;;;;;;5121228;28;20023;-67
2024/01/24 01:55:38;;;;;;;49.33;26.35;;;51.40;2227.20;;;;;;5121236;28;20527;-65
2024/01/24 01:58:07;;;;;;;44.00;23.77;;;51.40;2227.20;;;;;;5119424;28;20666;-67
2024/01/24 02:00:34;;;;;;;42.70;24.00;;;51.40;2227.20;;;;;;5120469;28;20507;-67
2024/01/24 02:06:22;;;;;;;46.50;22.77;;;51.50;2227.20;;;;;;5119637;28;20484;-77
2024/01/24 02:08:52;;;;;;;38.10;21.05;;;51.50;2227.20;;;;;;5118904;28;20036;-67
2024/01/24 02:11:18;;;;;;;35.78;19.50;;;51.50;2227.20;;;;;;5119093;28;20512;-68
2024/01/24 02:13:44;;;;;;;33.40;18.70;;;51.60;2227.20;;;;;;5119262;28;20470;-65
2024/01/24 02:16:13;;;;;;;33.65;19.35;;;51.60;2227.20;;;;;;5118813;28;20481;-68
2024/01/24 02:22:16;;;;;;;31.98;18.08;;;51.60;2227.20;;;;;;5138421;27;20131;-70
2024/01/24 02:24:42;;;;;;;33.03;18.40;;;51.70;2227.20;;;;;;5139796;27;20457;-66
2024/01/24 02:27:08;;;;;;;34.60;18.23;;;51.70;2227.20;;;;;;5139571;27;20103;-64
2024/01/24 02:29:34;;;;;;;31.85;18.15;;;51.60;2227.20;;;;;;5138873;27;20458;-67
2024/01/24 02:32:00;;;;;;;30.77;17.50;;;51.70;2227.20;;;;;;5139373;27;20453;-66
2024/01/24 02:37:48;;;;;;;36.08;18.60;;;51.70;2227.20;;;;;;5139389;27;20034;-69
2024/01/24 02:40:14;;;;;;;37.72;18.35;;;51.70;2227.20;;;;;;5139966;27;20027;-67
2024/01/24 02:42:43;;;;;;;35.00;18.33;;;51.70;2227.20;;;;;;5139056;27;20457;-69
2024/01/24 02:45:12;;;;;;;30.67;17.20;;;51.70;2227.20;;;;;;5139060;27;20458;-66
2024/01/24 02:47:38;;;;;;;28.58;16.20;;;51.70;2227.20;;;;;;5139036;27;20453;-72
2024/01/24 02:50:05;;;;;;;30.00;15.93;;;51.70;2227.20;;;;;;5138867;27;20034;-67
2024/01/24 02:52:31;;;;;;;29.38;16.13;;;51.70;2227.20;;;;;;5139030;27;20029;-67
2024/01/24 02:54:56;;;;;;;25.88;15.88;;;51.70;2227.20;;;;;;5138564;27;20102;-71
2024/01/24 02:57:22;;;;;;;31.63;17.00;;;51.70;2227.20;;;;;;5139296;27;20055;-69
2024/01/24 02:59:48;;;;;;;40.33;21.25;;;51.70;2227.20;;;;;;5138727;27;20023;-68
2024/01/24 03:02:14;;;;;;;33.35;18.75;;;51.70;2227.20;;;;;;5138573;27;20051;-72
2024/01/24 03:08:03;;;;;;;28.45;15.70;;;51.70;2227.20;;;;;;5138565;27;20030;-71
2024/01/24 03:10:29;;;;;;;27.33;15.73;;;51.70;2227.20;;;;;;5138779;27;20368;-70
2024/01/24 03:12:55;;;;;;;28.50;15.60;;;51.70;2227.20;;;;;;5138790;27;20090;-66
2024/01/24 03:15:25;;;;;;;29.00;15.43;;;51.70;2227.20;;;;;;5138407;27;20523;-70
2024/01/24 03:17:51;;;;;;;24.67;15.05;;;51.70;2227.20;;;;;;5138691;27;20446;-69
2024/01/24 03:20:17;;;;;;;27.08;15.85;;;51.70;2227.20;;;;;;5138441;27;20038;-67
2024/01/24 03:22:44;;;;;;;29.13;16.40;;;51.70;2227.20;;;;;;5138332;27;20465;-71
2024/01/24 03:25:12;;;;;;;27.08;16.02;;;51.70;2227.20;;;;;;5138573;27;20460;-68
2024/01/24 03:27:38;;;;;;;28.80;16.67;;;51.70;2227.20;;;;;;5138258;27;20517;-65
2024/01/24 03:30:05;;;;;;;28.55;18.05;;;51.80;2227.20;;;;;;5137969;27;20122;-66
2024/01/24 03:32:31;;;;;;;28.50;17.17;;;51.70;2227.20;;;;;;5138061;27;20029;-71
2024/01/24 03:38:20;;;;;;;36.03;18.13;;;51.70;2227.20;;;;;;5138304;27;20075;-66
2024/01/24 03:40:46;;;;;;;33.70;17.20;;;51.70;2227.20;;;;;;5137844;27;20449;-66
2024/01/24 03:43:12;;;;;;;32.58;16.38;;;51.70;2227.20;;;;;;5138090;27;20019;-76
2024/01/24 03:45:39;;;;;;;29.08;15.13;;;51.70;2227.20;;;;;;5138057;27;20521;-70
2024/01/24 03:48:06;;;;;;;26.23;14.80;;;51.70;2227.20;;;;;;5137755;27;20449;-70
2024/01/24 03:54:08;;;;;;;25.30;13.63;;;51.60;2227.20;;;;;;5137873;27;20030;-66
2024/01/24 03:56:34;;;;;;;21.65;13.38;;;51.60;2227.20;;;;;;5137572;27;20522;-66
2024/01/24 03:59:03;;;;;;;22.63;13.52;;;51.60;2227.20;;;;;;5126751;27;20702;-65
2024/01/24 04:01:29;;;;;;;20.67;12.57;;;51.60;2227.20;;;;;;5133064;27;20031;-65
2024/01/24 04:03:54;;;;;;;23.50;13.77;;;51.60;2227.20;;;;;;5134285;27;20039;-76
2024/01/24 04:06:20;;;;;;;24.73;14.88;;;51.60;2227.20;;;;;;5133530;27;20063;-68
2024/01/24 04:08:46;;;;;;;54.35;26.13;;;51.60;2227.20;;;;;;5135122;27;20442;-65
2024/01/24 04:11:11;;;;;;;102.65;40.55;;;51.60;2227.20;;;;;;5114148;27;20016;-73
2024/01/24 04:13:39;;;;;;;97.03;39.75;;;51.60;2227.20;;;;;;5108812;28;20032;-65
2024/01/24 04:16:05;;;;;;;203.70;69.65;;;51.60;2227.20;;;;;;5135508;27;20389;-73
2024/01/24 04:18:33;;;;;;;443.05;141.15;;;51.50;2227.20;;;;;;5137567;27;20525;-67
2024/01/24 04:21:01;;;;;;;85.75;36.33;;;51.50;2227.20;;;;;;5137366;27;20442;-67
2024/01/24 04:23:28;;;;;;;62.83;29.33;;;51.30;2227.20;;;;;;5136858;27;20479;-66
2024/01/24 04:25:54;;;;;;;64.85;30.05;;;51.30;2227.20;;;;;;5137146;27;20027;-67
2024/01/24 04:28:20;;;;;;;79.45;42.88;;;51.30;2227.20;;;;;;5137314;27;20525;-70
2024/01/24 04:30:46;;;;;;;457.27;152.70;;;51.20;2227.20;;;;;;5137090;27;20055;-69
2024/01/24 04:33:13;;;;;;;43.67;23.85;;;26.50;2201.60;;;;;;5136957;27;20046;-76
2024/01/24 04:35:38;;;;;;;71.78;35.67;;;26.50;2201.60;;;;;;5127137;27;20380;-75
2024/01/24 04:38:04;;;;;;;41.55;21.85;;;26.50;2201.60;;;;;;5134108;27;20031;-69
2024/01/24 04:40:30;;;;;;;44.38;24.63;;;26.40;2201.60;;;;;;5133887;27;20098;-70
2024/01/24 04:42:56;;;;;;;119.45;59.38;;;26.30;2201.60;;;;;;5133824;27;20162;-65
2024/01/24 04:45:22;;;;;;;315.65;149.15;;;26.40;2201.60;;;;;;5115918;27;20031;-65
2024/01/24 04:47:48;;;;;;;254.77;118.10;;;26.30;2201.60;;;;;;5094915;28;20032;-70
2024/01/24 04:50:14;;;;;;;646.60;270.75;;;26.20;2201.60;;;;;;5092453;28;20039;-66
2024/01/24 04:52:39;;;;;;;87.13;49.05;;;26.20;2201.60;;;;;;5092977;28;20131;-68
2024/01/24 04:55:14;;;;;;;121.60;66.28;;;26.10;2201.60;;;;;;5123784;27;20298;-71
2024/01/24 04:57:40;;;;;;;66.82;37.33;;;26.10;2201.60;;;;;;5120740;27;20066;-70
2024/01/24 05:00:11;;;;;;;60.58;33.55;;;26.00;2201.60;;;;;;5113230;28;20066;-70
2024/01/24 05:02:37;;;;;;;56.05;30.50;;;25.90;2201.60;;;;;;5112898;28;20366;-65
2024/01/24 05:05:06;;;;;;;66.57;32.72;;;25.90;2201.60;;;;;;5129420;28;20027;-76
2024/01/24 05:07:35;;;;;;;77.63;38.42;;;26.00;2201.60;;;;;;5133754;27;20462;-68
2024/01/24 05:10:05;;;;;;;46.78;28.77;;;26.10;2201.60;;;;;;5133136;27;20122;-72
2024/01/24 05:12:31;;;;;;;54.75;30.38;;;26.00;2201.60;;;;;;5133371;28;20022;-72
2024/01/24 05:15:00;;;;;;;140.00;60.30;;;26.10;2201.60;;;;;;5109216;28;20032;-69
2024/01/24 05:17:26;;;;;;;69.93;35.83;;;26.00;2201.60;;;;;;5121303;28;20030;-69
2024/01/24 05:23:14;;;;;;;173.50;65.03;;;26.10;2201.60;;;;;;5118931;28;20085;-69
2024/01/24 05:25:42;;;;;;;575.65;204.23;;;26.20;2201.60;;;;;;5102834;28;20027;-73
2024/01/24 05:28:12;;;;;;;123.13;49.92;;;26.10;2201.60;;;;;;5120026;28;20488;-75
2024/01/24 05:30:38;;;;;;;110.22;53.28;;;26.20;2201.60;;;;;;5120373;28;20430;-69
2024/01/24 05:33:04;;;;;;;92.90;45.00;;;26.20;2201.60;;;;;;5120490;28;20023;-71
2024/01/24 05:38:52;;;;;;;78.20;39.87;;;26.20;2201.60;;;;;;5120083;28;20030;-68
2024/01/24 05:41:18;;;;;;;74.55;39.05;;;26.30;2201.60;;;;;;5120241;28;20015;-76
2024/01/24 05:43:47;;;;;;;74.15;36.85;;;26.40;2201.60;;;;;;5119517;28;20515;-72
2024/01/24 05:46:13;;;;;;;71.32;35.10;;;26.40;2201.60;;;;;;5119599;28;20045;-75
2024/01/24 05:48:39;;;;;;;99.05;44.63;;;26.50;2201.60;;;;;;5119847;28;20020;-67
2024/01/24 05:54:26;;;;;;;110.18;47.88;;;26.50;2201.60;;;;;;5119664;28;20068;-71
2024/01/24 05:56:53;;;;;;;95.47;41.97;;;26.10;2201.60;;;;;;5119407;28;20388;-65
2024/01/24 05:59:19;;;;;;;85.30;40.63;;;25.90;2201.60;;;;;;5119386;28;20470;-72
2024/01/24 06:01:47;;;;;;;86.78;44.00;;;25.80;2201.60;;;;;;5119465;28;20542;-75
2024/01/24 06:04:13;;;;;;;85.85;42.72;;;25.90;2201.60;;;;;;5119648;28;20476;-66
2024/01/24 06:10:01;;;;;;;103.40;46.50;;;26.20;2201.60;;;;;;5119228;28;20042;-64
2024/01/24 06:12:28;;;;;;;107.55;54.15;;;26.20;2201.60;;;;;;5118978;28;20446;-74
2024/01/24 06:14:55;;;;;;;105.10;52.75;;;26.30;2201.60;;;;;;5119774;28;20023;-71
2024/01/24 06:17:22;;;;;;;108.47;49.65;;;26.40;2201.60;;;;;;5119554;28;20442;-66
2024/01/24 06:19:52;;;;;;;121.18;55.85;;;26.40;2201.60;;;;;;5119275;28;20529;-64
2024/01/24 06:22:18;;;;;;;124.03;57.17;;;26.40;2201.60;;;;;;5118790;28;20482;-77
2024/01/24 06:24:44;;;;;;;164.70;67.15;;;26.40;2201.60;;;;;;5118847;28;20035;-65
2024/01/24 06:27:11;;;;;;;378.08;148.52;;;26.50;2201.60;;;;;;5118788;28;20510;-72
2024/01/24 06:29:40;;;;;;;428.08;175.50;;;51.20;2227.20;;;;;;5118070;28;20476;-65
2024/01/24 06:32:07;;;;;;;175.60;91.05;;;;;;;;;;5118581;28;20469;-64
2024/01/24 06:34:36;;;;;;;244.82;113.55;;;77.00;2227.20;;;;;;5118989;28;20468;-65
2024/01/24 06:40:25;;;;;;;185.77;88.45;;;77.10;2227.20;;;;;;5118629;28;20049;-72
2024/01/24 06:42:51;;;;;;;188.05;91.97;;;76.80;2227.20;;;;;;5118585;28;20062;-74
2024/01/24 06:45:17;;;;;;;195.93;91.75;;;76.80;2227.20;;;;;;5118612;28;20035;-65
2024/01/24 06:47:43;;;;;;;142.45;64.72;;;52.10;2227.20;;;;;;5118387;28;20030;-72
2024/01/24 06:50:13;;;;;;;133.50;58.40;;;52.00;2227.20;;;;;;5118291;28;20039;-71
2024/01/24 06:52:40;;;;;;;129.77;57.90;;;51.90;2227.20;;;;;;5118469;28;20446;-64
2024/01/24 06:55:08;;;;;;;132.23;57.83;;;51.90;2227.20;;;;;;5118343;28;20203;-77
2024/01/24 06:57:34;;;;;;;166.88;75.38;;;51.90;2227.20;;;;;;5118284;28;20481;-69
2024/01/24 07:00:04;;;;;;;211.70;87.55;;;52.10;2227.20;;;;;;5118281;28;20513;-73
2024/01/24 07:02:30;;;;;;;221.55;84.05;;;51.80;2227.20;;;;;;5118636;28;20024;-70
2024/01/24 07:04:57;;;;;;;180.23;69.47;;;51.80;2227.20;;;;;;5118281;28;20554;-66
2024/01/24 07:10:45;;;;;;;98.18;42.63;;;51.80;2227.20;;;;;;5118165;28;20034;-68
2024/01/24 07:13:11;;;;;;;142.85;56.78;;;51.80;2227.20;;;;;;5109511;28;20108;-65
2024/01/24 07:15:36;;;;;;;175.15;66.75;;;51.80;2227.20;;;;;;5105780;28;20107;-73
2024/01/24 07:18:02;;;;;;;467.23;190.48;;;51.80;2227.20;;;;;;5109860;28;20066;-65
2024/01/24 07:20:29;;;;;;;210.27;90.05;;;51.80;2227.20;;;;;;5110953;27;20024;-66
2024/01/24 07:22:55;;;;;;;99.55;43.00;;;51.90;2227.20;;;;;;5097511;28;20055;-71
2024/01/24 07:25:21;;;;;;;81.93;42.25;;;51.90;2227.20;;;;;;5085925;28;20031;-64
2024/01/24 07:27:48;;;;;;;44.83;24.23;;;51.80;2227.20;;;;;;5089874;28;20028;-66
2024/01/24 07:30:15;;;;;;;58.83;32.70;;;51.80;2227.20;;;;;;5087688;28;20097;-64
2024/01/24 07:32:42;;;;;;;100.55;48.05;;;51.70;2227.20;;;;;;5082322;28;20107;-74
2024/01/24 07:35:11;;;;;;;114.10;53.88;;;52.00;2227.20;;;;;;5092204;28;20035;-73
2024/01/24 07:37:37;;;;;;;112.80;52.30;;;76.80;2227.20;;;;;;5090855;28;20038;-67
2024/01/24 07:40:03;;;;;;;89.97;43.95;;;77.60;2227.20;;;;;;5075075;28;20025;-77
2024/01/24 07:42:30;;;;;;;62.80;34.88;;;102.40;2227.20;;;;;;5077185;28;20439;-76
2024/01/24 07:44:56;;;;;;;69.75;34.35;;;102.50;2227.20;;;;;;5077061;28;20427;-75
2024/01/24 07:47:22;;;;;;;74.72;40.97;;;102.40;2227.20;;;;;;5076344;28;20024;-76
2024/01/24 07:49:51;;;;;;;55.22;30.02;;;77.70;2022.40;;;;;;5076494;28;20486;-71
2024/01/24 07:55:40;;;;;;;54.25;26.15;;;;;;;;;;5076712;28;20024;-69
2024/01/24 07:58:06;;;;;;;113.88;41.95;;;;;;;;;;5076481;28;20485;-67
2024/01/24 08:00:32;;;;;;;80.38;34.15;;;;;;;;;;5076929;28;20475;-70
2024/01/24 08:03:01;;;;;;;183.52;70.53;;;;;;;;;;5076934;28;20520;-67
2024/01/24 08:05:32;;;;;;;162.77;60.38;;;;;;;;;;5076402;28;20040;-67
2024/01/24 08:11:01;;;;;;;47.15;24.38;;;;;;;;;;5076349;28;20079;-76
2024/01/24 08:13:29;;;;;;;86.25;41.22;;;;;;;;;;5076544;28;20466;-66
2024/01/24 08:15:57;;;;;;;59.08;32.22;;;;;;;;;;5076009;28;20543;-76
2024/01/24 08:18:24;;;;;;;66.45;32.78;;;;;;;;;;5076127;28;20521;-72
2024/01/24 08:20:52;;;;;;;55.97;28.75;;;;;;;;;;5076114;28;20458;-67
2024/01/24 08:26:36;;;;;;;50.78;28.17;;;;;;;;;;5061986;28;20047;-71
2024/01/24 08:29:02;;;;;;;40.83;21.05;;;;;;;;;;5049679;28;20558;-73
2024/01/24 08:31:28;;;;;;;53.72;26.67;;;;;;;;;;5052507;28;20033;-65
2024/01/24 08:33:57;;;;;;;78.88;34.47;;;;;;;;;;5050039;28;20090;-66
2024/01/24 08:36:23;;;;;;;50.03;26.88;;;;;;;;;;5049427;28;20059;-76
2024/01/24 08:38:49;;;;;;;64.10;29.75;;;;;;;;;;5048934;28;20180;-77
2024/01/24 08:41:15;;;;;;;49.80;26.20;;;;;;;;;;5050099;28;20033;-65
2024/01/24 08:43:42;;;;;;;52.85;26.67;;;;;;;;;;5041555;28;20089;-67
2024/01/24 08:46:08;;;;;;;53.40;26.58;;;;;;;;;;5057347;28;20032;-70
2024/01/24 08:48:34;;;;;;;65.60;34.88;;;;;;;;;;5050512;28;20116;-66
2024/01/24 08:51:00;;;;;;;41.92;22.52;;;;;;;;;;5050442;28;20137;-78
2024/01/24 08:53:26;;;;;;;41.70;23.42;;;;;;;;;;5051706;28;20067;-79
2024/01/24 08:55:52;;;;;;;45.65;24.13;;;;;;;;;;5091789;28;20032;-65
2024/01/24 08:58:18;;;;;;;41.40;23.58;;;;;;;;;;5091454;28;20497;-66
2024/01/24 09:00:45;;;;;;;41.78;22.70;;;;;;;;;;5092049;28;20101;-79
2024/01/24 09:03:11;;;;;;;36.00;19.45;;;;;;;;;;5092985;28;20466;-69
2024/01/24 09:05:37;;;;;;;48.70;24.52;;;;;;;;;;5092833;28;20392;-67
2024/01/24 09:08:04;;;;;;;40.80;21.20;;;;;;;;;;5091004;28;20024;-77
2024/01/24 09:10:30;;;;;;;36.58;17.67;;;;;;;;;;5091805;28;20028;-70
2024/01/24 09:12:56;;;;;;;44.22;22.77;;;;;;;;;;5092119;28;20054;-80
2024/01/24 09:15:22;;;;;;;40.67;20.17;;;;;;;;;;5095269;28;20094;-78
2024/01/24 09:17:49;;;;;;;39.90;20.75;;;;;;;;;;5095839;28;20547;-76
2024/01/24 09:20:15;;;;;;;34.20;16.40;;;;;;;;;;5095889;28;20020;-81
2024/01/24 09:22:41;;;;;;;41.50;22.15;;;;;;;;;;5095563;28;20477;-73
2024/01/24 09:25:08;;;;;;;42.72;23.30;;;;;;;;;;5095534;28;20474;-70
2024/01/24 09:27:34;;;;;;;45.63;24.42;;;;;;;;;;5077482;28;20502;-75
2024/01/24 09:30:00;;;;;;;47.03;24.92;;;;;;;;;;5095733;28;20338;-74
2024/01/24 09:32:26;;;;;;;45.75;23.92;;;;;;;;;;5095449;28;20362;-64
2024/01/24 09:34:53;;;;;;;49.40;27.45;;;;;;;;;;5095784;28;20374;-64
2024/01/24 09:37:20;;;;;;;46.75;26.35;;;;;;;;;;5095264;28;20454;-64
2024/01/24 09:39:47;;;;;;;49.92;25.10;;;;;;;;;;5095242;28;20409;-68
2024/01/24 09:42:20;;;;;;;59.65;30.35;;;;;;;;;;5095862;28;20477;-67
2024/01/24 09:44:48;;;;;;;43.97;22.17;;;;;;;;;;5095481;28;20477;-65
2024/01/24 09:47:16;;;;;;;79.45;43.10;;;;;;;;;;5095270;28;20024;-64
2024/01/24 09:49:43;;;;;;;74.03;35.53;;;;;;;;;;5082422;28;20043;-65
2024/01/24 09:52:11;;;;;;;99.13;47.63;;;;;;;;;;5067806;28;20059;-64
2024/01/24 09:54:37;;;;;;;87.65;41.15;;;;;;;;;;5091950;28;20414;-71
2024/01/24 09:57:03;;;;;;;73.40;39.05;;;;;;;;;;5090156;28;20135;-68
2024/01/24 09:59:30;;;;;;;80.13;36.03;;;;;;;;;;5090402;28;20137;-72
2024/01/24 10:01:56;;;;;;;65.80;33.30;;;;;;;;;;5090860;28;20028;-74
2024/01/24 10:04:25;;;;;;;62.47;31.58;;;;;;;;;;5091296;28;20100;-67
2024/01/24 10:06:53;;;;;;;93.00;47.20;;;;;;;;;;5090168;28;20416;-64
2024/01/24 10:09:19;;;;;;;94.28;45.42;;;;;;;;;;5090541;28;20066;-63
2024/01/24 10:11:45;;;;;;;85.03;40.08;;;;;;;;;;5092675;28;20021;-71
2024/01/24 10:14:12;;;;;;;86.55;42.75;;;;;;;;;;5093800;28;20039;-65
2024/01/24 10:16:38;;;;;;;65.72;34.00;;;;;;;;;;5094149;28;20387;-63
2024/01/24 10:19:05;;;;;;;72.40;33.95;;;;;;;;;;5093313;28;20378;-66
2024/01/24 10:21:31;;;;;;;57.72;29.98;;;;;;;;;;5093956;28;20535;-64
2024/01/24 10:24:00;;;;;;;50.95;28.50;;;;;;;;;;5093266;28;20032;-65
2024/01/24 10:26:27;;;;;;;52.15;27.02;;;;;;;;;;5093103;28;20056;-66
2024/01/24 10:28:54;;;;;;;64.13;32.40;;;;;;;;;;5090439;28;20554;-65
2024/01/24 10:31:20;;;;;;;46.38;24.55;;;;;;;;;;5092185;28;20063;-64
2024/01/24 10:33:49;;;;;;;119.03;46.28;;;;;;;;;;5092943;28;20110;-64
2024/01/24 10:36:16;;;;;;;82.93;37.42;;;;;;;;;;5093342;28;20039;-65
2024/01/24 10:38:48;;;;;;;138.57;57.30;;;;;;;;;;5093162;28;20040;-63
2024/01/24 10:41:18;;;;;;;60.55;29.33;;;;;;;;;;5093746;28;20137;-64
2024/01/24 10:43:47;;;;;;;49.08;24.95;;;;;;;;;;5093211;28;20035;-64
2024/01/24 10:46:14;;;;;;;56.67;26.13;;;;;;;;;;5093326;28;20043;-62
2024/01/24 10:48:44;;;;;;;44.55;21.70;;;;;;;;;;5092489;28;20072;-63
2024/01/24 10:51:10;;;;;;;55.40;26.65;;;;;;;;;;5091279;28;20102;-65
2024/01/24 10:53:37;;;;;;;165.18;70.75;;;;;;;;;;5092551;28;20035;-64
2024/01/24 10:56:03;;;;;;;74.13;37.50;;;;;;;;;;5093859;28;20509;-63
2024/01/24 10:58:29;;;;;;;66.55;34.25;;;;;;;;;;5093540;28;20078;-63
2024/01/24 11:00:55;;;;;;;64.05;29.23;;;;;;;;;;5093178;28;20052;-65
2024/01/24 11:03:22;;;;;;;75.38;37.15;;;;;;;;;;5093363;28;20020;-63
2024/01/24 11:05:49;;;;;;;79.45;38.03;;;;;;;;;;5092140;28;20374;-64
2024/01/24 11:08:24;;;;;;;89.55;43.15;;;;;;;;;;5092043;28;20524;-65
2024/01/24 11:10:50;;;;;;;;;;;;;;;;;;5090776;28;20032;-63
2024/01/24 11:13:19;;;;;;;97.30;45.95;;;;;;;;;;5092637;28;20353;-64
2024/01/24 11:15:46;;;;;;;115.00;54.72;;;128.70;2252.80;;;;;;5092187;28;20030;-63
2024/01/24 11:18:19;;;;;;;100.10;47.97;;;128.70;2252.80;;;;;;5089526;28;20126;-62
2024/01/24 11:20:46;;;;;;;89.03;41.78;;;153.70;2252.80;;;;;;5089020;28;20062;-65
2024/01/24 11:23:41;;;;;;;70.57;36.05;;;153.90;2252.80;;;;;;5092856;28;20459;-64
2024/01/24 11:26:18;;;;;;;62.88;31.08;;;154.10;2252.80;;;;;;5090162;28;20460;-64
2024/01/24 11:28:45;;;;;;;45.97;23.35;;;154.00;2252.80;;;;;;5082965;28;20488;-65
2024/01/24 11:31:12;;;;;;;46.05;24.92;;;153.80;2252.80;;;;;;5086106;28;20082;-69
2024/01/24 11:34:10;;;;;;;50.60;25.60;;;154.10;2252.80;;;;;;5089802;28;20058;-66
2024/01/24 11:36:51;;;;;;;41.20;22.38;;;154.30;2252.80;;;;;;5093584;28;20481;-64
2024/01/24 11:39:32;;;;;;;58.75;30.42;;;154.40;2252.80;;;;;;5092887;28;20545;-63
2024/01/24 11:42:30;;;;;;;39.78;20.13;;;154.40;2252.80;;;;;;5092546;28;20032;-66
2024/01/24 11:45:15;;;;;;;54.78;28.05;;;;;;;;;;5092568;28;20044;-64
2024/01/24 11:47:41;;;;;;;53.30;28.80;;;179.60;2252.80;;;;;;5092745;28;20115;-65
2024/01/24 11:50:09;;;;;;;49.78;26.67;;;179.40;2252.80;;;;;;5092942;28;20094;-64
2024/01/24 11:52:35;;;;;;;69.65;31.90;;;179.60;2252.80;;;;;;5092670;28;20111;-72
2024/01/24 11:55:01;;;;;;;41.20;21.30;;;179.70;2252.80;;;;;;5092493;28;20028;-64
2024/01/24 11:57:29;;;;;;;60.88;32.67;;;179.60;2252.80;;;;;;5092226;28;20049;-70
2024/01/24 11:59:59;;;;;;;44.28;20.25;;;179.60;2252.80;;;;;;5092585;28;20481;-65
2024/01/24 12:02:24;;;;;;;41.83;22.88;;;179.60;2252.80;;;;;;5091819;28;20099;-65
2024/01/24 12:04:53;;;;;;;34.58;18.35;;;179.60;2252.80;;;;;;5091265;28;20391;-64
2024/01/24 12:07:19;;;;;;;44.28;23.25;;;179.40;2252.80;;;;;;5092091;28;20027;-63
2024/01/24 12:09:46;;;;;;;45.10;23.73;;;179.30;2252.80;;;;;;5090927;28;20031;-68
2024/01/24 12:12:14;;;;;;;49.97;23.75;;;179.40;2252.80;;;;;;5086948;28;20024;-64
2024/01/24 12:14:40;;;;;;;42.00;24.63;;;179.40;2252.80;;;;;;5091852;28;20038;-64
2024/01/24 12:17:09;;;;;;;63.17;31.67;;;179.40;2252.80;;;;;;5087537;28;20020;-64
2024/01/24 12:19:36;;;;;;;45.30;24.15;;;179.40;2252.80;;;;;;5084389;28;20032;-64
2024/01/24 12:22:08;;;;;;;53.08;26.92;;;179.50;2252.80;;;;;;5072249;28;20020;-64
2024/01/24 12:24:38;;;;;;;38.65;20.02;;;179.60;2252.80;;;;;;5090685;28;20493;-65
2024/01/24 12:27:06;;;;;;;32.58;17.52;;;179.60;2252.80;;;;;;5090282;28;20486;-64
2024/01/24 12:29:33;;;;;;;30.10;15.50;;;179.70;2252.80;;;;;;5090172;28;20448;-70
2024/01/24 12:32:05;;;;;;;39.95;19.98;;;179.80;2252.80;;;;;;5085350;28;20025;-65
2024/01/24 12:34:31;;;;;;;42.42;20.25;;;179.90;2252.80;;;;;;5088455;28;20024;-71
2024/01/24 12:36:58;;;;;;;27.73;13.63;;;179.90;2252.80;;;;;;5080762;28;20048;-64
2024/01/24 12:39:31;;;;;;;40.72;22.65;;;179.90;2252.80;;;;;;5088768;28;20024;-64
2024/01/24 12:41:57;;;;;;;46.00;23.45;;;179.80;2252.80;;;;;;5072863;28;20031;-66
2024/01/24 12:44:23;;;;;;;48.92;23.23;;;179.70;2252.80;;;;;;5076952;28;20111;-71
2024/01/24 12:46:56;;;;;;;40.67;22.42;;;179.60;2252.80;;;;;;5091465;28;20497;-68
2024/01/24 12:49:26;;;;;;;55.40;27.73;;;179.60;2252.80;;;;;;5092277;28;20425;-65
2024/01/24 12:51:54;;;;;;;46.92;24.38;;;179.60;2252.80;;;;;;5077558;28;20539;-65
2024/01/24 12:57:43;;;;;;;40.45;19.27;;;179.60;2252.80;;;;;;5095537;28;20508;-67
2024/01/24 13:00:10;;;;;;;44.42;22.90;;;179.60;2252.80;;;;;;5095558;28;20032;-67
2024/01/24 13:02:38;;;;;;;46.97;23.88;;;179.70;2252.80;;;;;;5095469;28;20454;-73
2024/01/24 13:05:05;;;;;;;32.33;17.15;;;179.80;2252.80;;;;;;5095646;28;20042;-65
2024/01/24 13:07:32;;;;;;;46.65;24.60;;;179.80;2252.80;;;;;;5095732;28;20462;-67
2024/01/24 13:13:20;;;;;;;39.28;19.95;;;179.90;2252.80;;;;;;5094572;28;20115;-64
2024/01/24 13:15:45;;;;;;;118.15;44.78;;;179.90;2252.80;;;;;;5095093;28;20490;-65
2024/01/24 13:18:12;;;;;;;97.90;46.17;;;179.90;2252.80;;;;;;5095156;28;20035;-67
2024/01/24 13:20:38;;;;;;;156.18;66.63;;;180.00;2252.80;;;;;;5094867;28;20482;-66
2024/01/24 13:23:05;;;;;;;198.25;77.18;;;180.00;2252.80;;;;;;5095149;28;20071;-65
2024/01/24 13:29:20;;;;;;;82.18;38.45;;;180.10;2252.80;;;;;;5114462;28;20051;-67
2024/01/24 13:31:47;;;;;;;76.07;36.00;;;180.10;2252.80;;;;;;5116053;28;20377;-66
2024/01/24 13:34:15;;;;;;;74.32;39.83;;;204.80;2252.80;;;;;;5115581;28;20450;-70
2024/01/24 13:36:45;;;;;;;97.57;49.33;;;204.80;2252.80;;;;;;5115458;28;20433;-66
2024/01/24 13:39:17;;;;;;;81.65;39.70;;;204.80;2252.80;;;;;;5117931;28;20488;-65
2024/01/24 13:45:06;;;;;;;37.20;21.17;;;204.80;2252.80;;;;;;5119567;28;20022;-66
2024/01/24 13:47:34;;;;;;;51.65;28.52;;;180.10;2252.80;;;;;;5119071;28;20501;-65
2024/01/24 13:50:00;;;;;;;49.15;25.75;;;180.10;2252.80;;;;;;5119047;28;20531;-67
2024/01/24 13:52:26;;;;;;;66.97;31.48;;;180.00;2252.80;;;;;;5118399;28;20027;-64